createdAt,value
2022-12-28T00:03:49.512Z,101158.69
2022-12-28T00:08:55.698Z,101148.97
2022-12-28T00:13:58.194Z,101141.25
2022-12-28T00:19:04.057Z,101118.72
2022-12-28T00:24:06.327Z,101119.81
2022-12-28T00:29:09.102Z,101103.72
2022-12-28T00:34:11.098Z,101105.59
2022-12-28T00:39:13.214Z,101100.44
2022-12-28T00:44:14.993Z,101076.69
2022-12-28T00:49:16.778Z,101065.91
2022-12-28T00:54:18.594Z,101044.78
2022-12-28T00:59:20.478Z,101035.84
2022-12-28T01:04:23.183Z,101030.34
2022-12-28T01:09:24.877Z,101034.09
2022-12-28T01:14:26.659Z,101034.78
2022-12-28T01:19:28.492Z,101023.59
2022-12-28T01:24:30.348Z,101018.47
2022-12-28T01:29:32.799Z,101027.09
2022-12-28T01:34:34.844Z,101021.84
2022-12-28T01:39:36.592Z,101013.00
2022-12-28T01:44:42.976Z,100994.63
2022-12-28T01:50:03.515Z,100982.09
2022-12-28T01:55:10.468Z,100981.09
2022-12-28T02:00:14.869Z,100975.88
2022-12-28T02:05:17.566Z,100972.38
2022-12-28T02:10:42.762Z,100973.03
2022-12-28T02:15:42.803Z,100956.31
2022-12-28T02:21:22.161Z,100967.97
2022-12-28T02:26:32.904Z,100943.13
2022-12-28T02:31:46.976Z,100930.88
2022-12-28T02:36:59.763Z,100919.22
2022-12-28T02:42:02.073Z,100916.88
2022-12-28T02:47:23.731Z,100897.47
2022-12-28T02:52:55.191Z,100885.78
2022-12-28T02:58:25.512Z,100882.25
2022-12-28T03:03:42.697Z,100868.94
2022-12-28T03:08:56.398Z,100860.91
2022-12-28T03:14:11.800Z,100864.56
2022-12-28T03:19:32.271Z,100847.88
2022-12-28T03:24:56.034Z,100846.94
2022-12-28T03:30:30.604Z,100844.13
2022-12-28T03:35:43.406Z,100833.94
2022-12-28T03:40:50.574Z,100833.13
2022-12-28T03:45:55.855Z,100818.72
2022-12-28T03:50:57.623Z,100805.66
2022-12-28T03:56:08.168Z,100796.47
2022-12-28T04:01:10.482Z,100784.31
2022-12-28T04:06:17.046Z,100778.22
2022-12-28T04:11:18.737Z,100768.69
2022-12-28T04:16:21.460Z,100763.97
2022-12-28T04:21:23.409Z,100775.47
2022-12-28T04:26:25.247Z,100778.28
2022-12-28T04:31:27.205Z,100764.13
2022-12-28T04:36:29.100Z,100766.41
2022-12-28T04:41:30.889Z,100768.56
2022-12-28T04:46:33.057Z,100769.38
2022-12-28T04:51:35.537Z,100763.97
2022-12-28T04:56:37.409Z,100760.19
2022-12-28T05:01:39.319Z,100772.44
2022-12-28T05:06:41.248Z,100768.72
2022-12-28T05:11:43.051Z,100764.13
2022-12-28T05:16:44.885Z,100753.25
2022-12-28T05:21:46.648Z,100745.69
2022-12-28T05:26:48.514Z,100750.94
2022-12-28T05:31:50.324Z,100748.06
2022-12-28T05:36:52.404Z,100749.94
2022-12-28T05:41:54.212Z,100749.00
2022-12-28T05:46:56.538Z,100737.63
2022-12-28T05:51:58.265Z,100734.22
2022-12-28T05:56:59.988Z,100730.72
2022-12-28T06:02:01.835Z,100723.63
2022-12-28T06:07:03.791Z,100712.72
2022-12-28T06:12:07.047Z,100712.97
2022-12-28T06:17:08.785Z,100720.13
2022-12-28T06:22:10.576Z,100711.19
2022-12-28T06:27:12.566Z,100704.09
2022-12-28T06:32:14.440Z,100716.63
2022-12-28T06:37:16.553Z,100707.25
2022-12-28T06:42:18.484Z,100703.50
2022-12-28T06:47:20.480Z,100710.00
2022-12-28T06:52:22.578Z,100702.38
2022-12-28T06:57:24.424Z,100706.47
2022-12-28T07:02:26.365Z,100694.22
2022-12-28T07:07:28.266Z,100700.38
2022-12-28T07:12:29.955Z,100698.66
2022-12-28T07:17:31.604Z,100697.59
2022-12-28T07:22:33.448Z,100698.66
2022-12-28T07:27:36.600Z,100697.06
2022-12-28T07:32:39.020Z,100697.97
2022-12-28T07:37:41.085Z,100691.78
2022-12-28T07:42:42.848Z,100696.00
2022-12-28T07:47:44.736Z,100692.34
2022-12-28T07:52:46.448Z,100686.78
2022-12-28T07:57:48.152Z,100688.81
2022-12-28T08:02:49.937Z,100681.63
2022-12-28T08:07:52.541Z,100672.69
2022-12-28T08:12:54.234Z,100688.06
2022-12-28T08:18:03.130Z,100687.91
2022-12-28T08:23:04.905Z,100695.06
2022-12-28T08:28:06.729Z,100683.50
2022-12-28T08:33:08.590Z,100700.16
2022-12-28T08:38:10.421Z,100685.53
2022-12-28T08:43:12.738Z,100691.28
2022-12-28T08:48:15.241Z,100690.66
2022-12-28T08:53:17.074Z,100688.69
2022-12-28T08:58:19.089Z,100683.97
2022-12-28T09:03:21.296Z,100688.13
2022-12-28T09:08:23.104Z,100689.78
2022-12-28T09:13:24.894Z,100670.31
2022-12-28T09:18:27.085Z,100675.81
2022-12-28T09:23:29.157Z,100665.22
2022-12-28T09:28:30.865Z,100679.44
2022-12-28T09:34:33.594Z,100659.97
2022-12-28T09:39:20.026Z,100666.91
2022-12-28T09:44:50.937Z,100662.63
2022-12-28T09:49:56.232Z,100672.31
2022-12-28T09:55:05.691Z,100671.56
2022-12-28T10:00:14.897Z,100672.75
2022-12-28T10:05:21.158Z,100670.84
2022-12-28T10:10:24.163Z,100660.50
2022-12-28T10:15:28.201Z,100662.69
2022-12-28T10:20:32.477Z,100640.91
2022-12-28T10:25:34.487Z,100637.19
2022-12-28T10:30:49.567Z,100640.19
2022-12-28T10:35:55.174Z,100636.81
2022-12-28T10:41:03.006Z,100633.81
2022-12-28T10:46:13.457Z,100636.25
2022-12-28T10:51:21.764Z,100630.31
2022-12-28T10:56:27.918Z,100628.19
2022-12-28T11:01:30.568Z,100620.03
2022-12-28T11:06:36.905Z,100613.88
2022-12-28T11:11:39.451Z,100608.41
2022-12-28T11:16:42.187Z,100607.66
2022-12-28T11:21:44.670Z,100609.38
2022-12-28T11:26:49.715Z,100605.94
2022-12-28T11:32:00.151Z,100590.72
2022-12-28T11:37:02.004Z,100578.31
2022-12-28T11:42:37.913Z,100581.81
2022-12-28T11:47:33.553Z,100563.22
2022-12-28T11:52:45.761Z,100542.94
2022-12-28T11:57:47.996Z,100531.53
2022-12-28T12:02:56.696Z,100539.94
2022-12-28T12:07:58.496Z,100532.34
2022-12-28T12:13:01.826Z,100521.63
2022-12-28T12:18:14.578Z,100499.53
2022-12-28T12:23:32.912Z,100488.03
2022-12-28T12:28:41.079Z,100470.63
2022-12-28T12:33:47.890Z,100469.47
2022-12-28T12:39:22.915Z,100465.03
2022-12-28T12:44:36.291Z,100481.50
2022-12-28T12:50:16.883Z,100474.78
2022-12-28T12:55:27.707Z,100437.91
2022-12-28T13:01:01.420Z,100425.56
2022-12-28T13:06:05.147Z,100402.28
2022-12-28T13:11:12.010Z,100406.47
2022-12-28T13:16:21.167Z,100404.88
2022-12-28T13:21:24.659Z,100400.66
2022-12-28T13:26:29.910Z,100390.00
2022-12-28T13:31:37.918Z,100380.53
2022-12-28T13:36:56.867Z,100372.31
2022-12-28T13:42:02.531Z,100353.03
2022-12-28T13:47:15.039Z,100346.66
2022-12-28T13:52:25.700Z,100341.75
2022-12-28T13:57:50.087Z,100324.69
2022-12-28T14:02:55.806Z,100330.63
2022-12-28T14:07:59.472Z,100318.16
2022-12-28T14:13:02.396Z,100314.19
2022-12-28T14:18:05.432Z,100310.75
2022-12-28T14:23:20.427Z,100285.41
2022-12-28T14:28:24.328Z,100289.56
2022-12-28T14:33:32.928Z,100264.53
2022-12-28T14:38:40.203Z,100245.31
2022-12-28T14:43:42.702Z,100238.69
2022-12-28T14:48:45.793Z,100227.69
2022-12-28T14:54:10.285Z,100208.03
2022-12-28T14:59:27.395Z,100209.06
2022-12-28T15:04:37.169Z,100198.00
2022-12-28T15:09:38.857Z,100197.34
2022-12-28T15:14:41.203Z,100196.13
2022-12-28T15:19:43.764Z,100186.94
2022-12-28T15:24:46.640Z,100178.84
2022-12-28T15:30:04.862Z,100164.88
2022-12-28T15:35:08.085Z,100158.91
2022-12-28T15:40:10.535Z,100138.66
2022-12-28T15:45:13.324Z,100142.75
2022-12-28T15:50:15.289Z,100134.34
2022-12-28T15:55:17.830Z,100112.75
2022-12-28T16:00:20.736Z,100105.94
2022-12-28T16:05:22.911Z,100112.38
2022-12-28T16:10:24.865Z,100107.69
2022-12-28T16:15:26.886Z,100104.28
2022-12-28T16:20:29.869Z,100100.69
2022-12-28T16:25:31.640Z,100091.28
2022-12-28T16:30:48.535Z,100085.84
2022-12-28T16:35:55.942Z,100084.59
2022-12-28T16:41:01.008Z,100069.50
2022-12-28T16:46:06.896Z,100069.25
2022-12-28T16:51:09.654Z,100062.41
2022-12-28T16:56:11.658Z,100058.47
2022-12-28T17:01:13.670Z,100051.97
2022-12-28T17:06:16.660Z,100042.47
2022-12-28T17:11:19.358Z,100028.22
2022-12-28T17:16:21.126Z,100009.16
2022-12-28T17:21:22.980Z,100009.69
2022-12-28T17:26:25.487Z,99997.22
2022-12-28T17:31:27.830Z,99987.66
2022-12-28T17:36:30.169Z,99987.91
2022-12-28T17:41:31.924Z,99978.63
2022-12-28T17:46:40.837Z,99967.50
2022-12-28T17:51:43.690Z,99958.09
2022-12-28T17:56:45.889Z,99943.41
2022-12-28T18:01:48.028Z,99946.91
2022-12-28T18:06:49.856Z,99924.59
2022-12-28T18:11:51.723Z,99918.44
2022-12-28T18:16:54.825Z,99911.78
2022-12-28T18:21:56.689Z,99905.28
2022-12-28T18:26:58.428Z,99896.84
2022-12-28T18:32:00.165Z,99893.91
2022-12-28T18:37:02.074Z,99879.28
2022-12-28T18:42:04.390Z,99872.72
2022-12-28T18:47:06.237Z,99875.38
2022-12-28T18:52:08.234Z,99864.09
2022-12-28T18:57:10.501Z,99866.03
2022-12-28T19:02:18.986Z,99857.00
2022-12-28T19:07:21.717Z,99861.94
2022-12-28T19:12:23.559Z,99859.81
2022-12-28T19:17:25.428Z,99858.63
2022-12-28T19:22:27.247Z,99859.81
2022-12-28T19:27:29.203Z,99846.22
2022-12-28T19:32:31.089Z,99827.53
2022-12-28T19:37:34.280Z,99826.66
2022-12-28T19:42:36.031Z,99825.53
2022-12-28T19:47:38.015Z,99828.97
2022-12-28T19:52:40.124Z,99817.78
2022-12-28T19:57:42.436Z,99810.41
2022-12-28T20:02:44.898Z,99804.75
2022-12-28T20:07:46.814Z,99809.00
2022-12-28T20:12:48.959Z,99788.56
2022-12-28T20:17:50.899Z,99795.75
2022-12-28T20:22:52.853Z,99789.69
2022-12-28T20:27:54.824Z,99795.81
2022-12-28T20:32:56.749Z,99784.66
2022-12-28T20:37:58.436Z,99782.00
2022-12-28T20:43:19.100Z,99789.00
2022-12-28T20:48:21.042Z,99770.72
2022-12-28T20:53:22.884Z,99767.81
2022-12-28T20:58:24.641Z,99764.47
2022-12-28T21:03:26.644Z,99757.41
2022-12-28T21:08:31.016Z,99769.34
2022-12-28T21:13:33.212Z,99764.88
2022-12-28T21:18:35.805Z,99766.88
2022-12-28T21:23:37.701Z,99759.16
2022-12-28T21:28:39.552Z,99772.41
2022-12-28T21:33:41.913Z,99767.78
2022-12-28T21:38:46.178Z,99770.06
2022-12-28T21:43:49.243Z,99755.38
2022-12-28T21:48:50.925Z,99754.53
2022-12-28T21:53:52.637Z,99754.63
2022-12-28T21:58:54.954Z,99740.25
2022-12-28T22:04:15.600Z,99737.69
2022-12-28T22:09:38.315Z,99730.41
2022-12-28T22:14:40.089Z,99728.41
2022-12-28T22:19:41.977Z,99724.72
2022-12-28T22:24:43.758Z,99719.59
2022-12-28T22:29:45.700Z,99721.59
2022-12-28T22:34:47.471Z,99708.22
2022-12-28T22:39:49.389Z,99704.66
2022-12-28T22:44:51.237Z,99693.22
2022-12-28T22:49:53.235Z,99694.59
2022-12-28T22:54:55.003Z,99700.84
2022-12-28T22:59:57.074Z,99687.22
2022-12-28T23:05:00.248Z,99692.34
2022-12-28T23:10:02.296Z,99676.72
2022-12-28T23:15:19.273Z,99669.94
2022-12-28T23:20:39.806Z,99667.09
2022-12-28T23:26:00.509Z,99668.31
2022-12-28T23:31:02.316Z,99667.38
2022-12-28T23:36:05.355Z,99654.13
2022-12-28T23:41:26.187Z,99654.53
2022-12-28T23:46:28.144Z,99640.00
2022-12-28T23:51:30.026Z,99642.47
2022-12-28T23:56:31.837Z,99626.34
